sensor_id;sensor_type;location;lat;lon;timestamp;temperature;humidity
68842;SHT35;55849;48.482;2.332;2024-03-02T06:12:02;8.52;81.84
68842;SHT35;55849;48.482;2.332;2024-03-02T06:15:07;8.52;81.43
68842;SHT35;55849;48.482;2.332;2024-03-02T06:18:09;8.54;81.79
68842;SHT35;55849;48.482;2.332;2024-03-02T06:21:10;8.54;81.89
68842;SHT35;55849;48.482;2.332;2024-03-02T06:24:12;8.54;82.06
68842;SHT35;55849;48.482;2.332;2024-03-02T06:27:15;8.58;82.03
68842;SHT35;55849;48.482;2.332;2024-03-02T06:30:17;8.59;82.10
68842;SHT35;55849;48.482;2.332;2024-03-02T06:33:18;8.64;81.95
68842;SHT35;55849;48.482;2.332;2024-03-02T06:36:20;8.62;81.69
68842;SHT35;55849;48.482;2.332;2024-03-02T06:39:21;8.64;82.02
68842;SHT35;55849;48.482;2.332;2024-03-02T06:42:24;8.64;82.26
68842;SHT35;55849;48.482;2.332;2024-03-02T06:45:26;8.65;81.98
68842;SHT35;55849;48.482;2.332;2024-03-02T06:48:28;8.65;81.94
68842;SHT35;55849;48.482;2.332;2024-03-02T06:51:30;8.65;81.59
68842;SHT35;55849;48.482;2.332;2024-03-02T06:54:32;8.69;82.04
68842;SHT35;55849;48.482;2.332;2024-03-02T06:57:36;8.69;81.60
68842;SHT35;55849;48.482;2.332;2024-03-02T07:00:37;8.71;81.59
68842;SHT35;55849;48.482;2.332;2024-03-02T07:03:39;8.75;82.40
68842;SHT35;55849;48.482;2.332;2024-03-02T07:06:41;8.76;82.15
68842;SHT35;55849;48.482;2.332;2024-03-02T07:09:42;8.83;82.13
68842;SHT35;55849;48.482;2.332;2024-03-02T07:12:45;8.83;82.49
68842;SHT35;55849;48.482;2.332;2024-03-02T07:15:47;8.87;82.13
68842;SHT35;55849;48.482;2.332;2024-03-02T07:19:12;8.87;81.97
68842;SHT35;55849;48.482;2.332;2024-03-02T07:22:13;8.91;82.14
68842;SHT35;55849;48.482;2.332;2024-03-02T07:25:15;8.96;82.41
68842;SHT35;55849;48.482;2.332;2024-03-02T07:28:18;8.97;82.35
68842;SHT35;55849;48.482;2.332;2024-03-02T07:31:19;8.99;82.08
68842;SHT35;55849;48.482;2.332;2024-03-02T07:34:21;9.01;82.09
68842;SHT35;55849;48.482;2.332;2024-03-02T07:37:23;9.04;82.34
68842;SHT35;55849;48.482;2.332;2024-03-02T07:40:24;9.08;82.29
68842;SHT35;55849;48.482;2.332;2024-03-02T07:43:27;9.11;82.16
68842;SHT35;55849;48.482;2.332;2024-03-02T07:46:29;9.14;82.45
68842;SHT35;55849;48.482;2.332;2024-03-02T07:49:31;9.18;82.20
68842;SHT35;55849;48.482;2.332;2024-03-02T07:52:33;9.20;82.49
68842;SHT35;55849;48.482;2.332;2024-03-02T07:55:34;9.21;82.15
68842;SHT35;55849;48.482;2.332;2024-03-02T07:58:37;9.25;82.80
68842;SHT35;55849;48.482;2.332;2024-03-02T08:01:39;9.27;82.51
68842;SHT35;55849;48.482;2.332;2024-03-02T08:04:41;9.30;82.52
68842;SHT35;55849;48.482;2.332;2024-03-02T08:07:43;9.32;82.75
68842;SHT35;55849;48.482;2.332;2024-03-02T08:10:45;9.35;82.71
68842;SHT35;55849;48.482;2.332;2024-03-02T08:13:48;9.36;82.79
68842;SHT35;55849;48.482;2.332;2024-03-02T08:16:50;9.36;82.71
68842;SHT35;55849;48.482;2.332;2024-03-02T08:19:52;9.41;82.55
68842;SHT35;55849;48.482;2.332;2024-03-02T08:22:54;9.42;82.48
68842;SHT35;55849;48.482;2.332;2024-03-02T08:25:56;9.43;82.44
68842;SHT35;55849;48.482;2.332;2024-03-02T08:28:59;9.49;82.64
68842;SHT35;55849;48.482;2.332;2024-03-02T08:32:02;9.49;82.75
68842;SHT35;55849;48.482;2.332;2024-03-02T08:35:05;9.53;82.77
68842;SHT35;55849;48.482;2.332;2024-03-02T08:38:06;9.58;82.53
68842;SHT35;55849;48.482;2.332;2024-03-02T08:41:08;9.58;82.56
68842;SHT35;55849;48.482;2.332;2024-03-02T08:44:12;9.59;82.79
68842;SHT35;55849;48.482;2.332;2024-03-02T08:47:14;9.63;82.80
68842;SHT35;55849;48.482;2.332;2024-03-02T08:50:15;9.67;82.69
68842;SHT35;55849;48.482;2.332;2024-03-02T08:53:17;9.69;82.78
68842;SHT35;55849;48.482;2.332;2024-03-02T08:56:19;9.70;82.58
68842;SHT35;55849;48.482;2.332;2024-03-02T08:59:23;9.70;82.66
68842;SHT35;55849;48.482;2.332;2024-03-02T09:02:25;9.76;82.59
68842;SHT35;55849;48.482;2.332;2024-03-02T09:05:27;9.75;82.51
68842;SHT35;55849;48.482;2.332;2024-03-02T09:08:28;9.77;82.59
68842;SHT35;55849;48.482;2.332;2024-03-02T09:11:30;9.77;82.61
68842;SHT35;55849;48.482;2.332;2024-03-02T09:14:34;9.77;82.58
68842;SHT35;55849;48.482;2.332;2024-03-02T09:17:36;9.82;82.80
68842;SHT35;55849;48.482;2.332;2024-03-02T09:20:38;9.82;82.66
68842;SHT35;55849;48.482;2.332;2024-03-02T09:23:40;9.84;82.61
68842;SHT35;55849;48.482;2.332;2024-03-02T09:26:41;9.87;82.57
68842;SHT35;55849;48.482;2.332;2024-03-02T09:29:44;9.87;82.70
68842;SHT35;55849;48.482;2.332;2024-03-02T09:32:46;9.90;82.90
68842;SHT35;55849;48.482;2.332;2024-03-02T09:35:48;9.97;83.07
68842;SHT35;55849;48.482;2.332;2024-03-02T09:38:50;9.98;83.10
68842;SHT35;55849;48.482;2.332;2024-03-02T09:41:51;10.04;83.39
68842;SHT35;55849;48.482;2.332;2024-03-02T09:44:55;10.11;83.52
68842;SHT35;55849;48.482;2.332;2024-03-02T09:47:58;10.17;83.33
68842;SHT35;55849;48.482;2.332;2024-03-02T09:51:00;10.22;83.39
68842;SHT35;55849;48.482;2.332;2024-03-02T09:54:03;10.28;83.20
68842;SHT35;55849;48.482;2.332;2024-03-02T09:57:06;10.29;83.28
68842;SHT35;55849;48.482;2.332;2024-03-02T10:00:10;10.36;83.12
68842;SHT35;55849;48.482;2.332;2024-03-02T10:03:18;10.38;83.23
68842;SHT35;55849;48.482;2.332;2024-03-02T10:06:21;10.42;83.13
68842;SHT35;55849;48.482;2.332;2024-03-02T10:09:27;10.46;83.18
68842;SHT35;55849;48.482;2.332;2024-03-02T10:12:29;10.49;82.91
68842;SHT35;55849;48.482;2.332;2024-03-02T10:15:32;10.52;82.85
68842;SHT35;55849;48.482;2.332;2024-03-02T10:18:34;10.55;82.61
68842;SHT35;55849;48.482;2.332;2024-03-02T10:21:35;10.56;82.53
68842;SHT35;55849;48.482;2.332;2024-03-02T10:24:38;10.56;82.46
68842;SHT35;55849;48.482;2.332;2024-03-02T10:27:40;10.56;82.35
68842;SHT35;55849;48.482;2.332;2024-03-02T10:30:43;10.55;82.29
68842;SHT35;55849;48.482;2.332;2024-03-02T10:33:48;10.57;82.18
68842;SHT35;55849;48.482;2.332;2024-03-02T10:36:50;10.57;82.23
68842;SHT35;55849;48.482;2.332;2024-03-02T10:39:52;10.57;82.20
68842;SHT35;55849;48.482;2.332;2024-03-02T10:42:54;10.57;82.23
68842;SHT35;55849;48.482;2.332;2024-03-02T10:45:57;10.56;82.28
68842;SHT35;55849;48.482;2.332;2024-03-02T10:49:00;10.57;82.29
68842;SHT35;55849;48.482;2.332;2024-03-02T10:52:03;10.57;82.49
68842;SHT35;55849;48.482;2.332;2024-03-02T10:55:05;10.57;82.46
68842;SHT35;55849;48.482;2.332;2024-03-02T10:58:12;10.59;82.51
68842;SHT35;55849;48.482;2.332;2024-03-02T11:01:17;10.59;82.53
68842;SHT35;55849;48.482;2.332;2024-03-02T11:04:19;10.62;82.22
68842;SHT35;55849;48.482;2.332;2024-03-02T11:07:22;10.66;82.60
68842;SHT35;55849;48.482;2.332;2024-03-02T11:10:25;10.70;82.67
68842;SHT35;55849;48.482;2.332;2024-03-02T11:13:30;10.73;82.68
68842;SHT35;55849;48.482;2.332;2024-03-02T11:16:36;10.77;82.83
68842;SHT35;55849;48.482;2.332;2024-03-02T11:19:39;10.83;82.63
68842;SHT35;55849;48.482;2.332;2024-03-02T11:22:42;10.88;82.81
68842;SHT35;55849;48.482;2.332;2024-03-02T11:25:44;10.91;82.79
68842;SHT35;55849;48.482;2.332;2024-03-02T11:28:47;10.98;82.60
68842;SHT35;55849;48.482;2.332;2024-03-02T11:32:00;11.03;82.64
68842;SHT35;55849;48.482;2.332;2024-03-02T11:35:02;11.03;82.47
68842;SHT35;55849;48.482;2.332;2024-03-02T11:38:04;11.07;82.55
68842;SHT35;55849;48.482;2.332;2024-03-02T11:41:06;11.08;82.74
68842;SHT35;55849;48.482;2.332;2024-03-02T11:44:09;11.12;82.53
68842;SHT35;55849;48.482;2.332;2024-03-02T11:47:15;11.12;82.33
68842;SHT35;55849;48.482;2.332;2024-03-02T11:50:28;11.11;81.94
68842;SHT35;55849;48.482;2.332;2024-03-02T11:53:30;11.08;81.51
68842;SHT35;55849;48.482;2.332;2024-03-02T11:56:33;11.03;81.58
68842;SHT35;55849;48.482;2.332;2024-03-02T11:59:35;10.97;81.69
68842;SHT35;55849;48.482;2.332;2024-03-02T12:02:38;10.95;81.32
68842;SHT35;55849;48.482;2.332;2024-03-02T12:05:42;10.91;81.48
68842;SHT35;55849;48.482;2.332;2024-03-02T12:08:44;10.91;81.78
68842;SHT35;55849;48.482;2.332;2024-03-02T12:11:46;10.91;81.49
68842;SHT35;55849;48.482;2.332;2024-03-02T12:14:52;10.90;81.77
68842;SHT35;55849;48.482;2.332;2024-03-02T12:17:57;10.87;81.81
68842;SHT35;55849;48.482;2.332;2024-03-02T12:20:59;10.88;81.89
68842;SHT35;55849;48.482;2.332;2024-03-02T12:24:03;10.88;81.90
68842;SHT35;55849;48.482;2.332;2024-03-02T12:27:06;10.88;82.08
68842;SHT35;55849;48.482;2.332;2024-03-02T12:30:08;10.93;82.07
68842;SHT35;55849;48.482;2.332;2024-03-02T12:33:12;10.94;82.35
68842;SHT35;55849;48.482;2.332;2024-03-02T12:36:14;10.94;82.25
68842;SHT35;55849;48.482;2.332;2024-03-02T12:39:16;10.95;81.88
68842;SHT35;55849;48.482;2.332;2024-03-02T12:42:18;10.95;82.14
68842;SHT35;55849;48.482;2.332;2024-03-02T12:45:20;11.00;82.14
68842;SHT35;55849;48.482;2.332;2024-03-02T12:48:25;11.01;82.18
68842;SHT35;55849;48.482;2.332;2024-03-02T12:51:27;11.00;82.07
68842;SHT35;55849;48.482;2.332;2024-03-02T12:54:29;11.01;82.22
68842;SHT35;55849;48.482;2.332;2024-03-02T12:57:31;11.04;82.22
68842;SHT35;55849;48.482;2.332;2024-03-02T13:00:32;11.03;82.21
68842;SHT35;55849;48.482;2.332;2024-03-02T13:03:37;11.03;82.02
68842;SHT35;55849;48.482;2.332;2024-03-02T13:06:39;11.03;82.14
68842;SHT35;55849;48.482;2.332;2024-03-02T13:09:41;11.07;82.32
68842;SHT35;55849;48.482;2.332;2024-03-02T13:12:42;11.07;82.43
68842;SHT35;55849;48.482;2.332;2024-03-02T13:15:44;11.10;82.61
68842;SHT35;55849;48.482;2.332;2024-03-02T13:18:47;11.15;82.63
68842;SHT35;55849;48.482;2.332;2024-03-02T13:21:48;11.16;82.58
68842;SHT35;55849;48.482;2.332;2024-03-02T13:24:52;11.16;82.47
68842;SHT35;55849;48.482;2.332;2024-03-02T13:27:54;11.19;81.98
68842;SHT35;55849;48.482;2.332;2024-03-02T13:30:56;11.21;82.20
68842;SHT35;55849;48.482;2.332;2024-03-02T13:34:00;11.23;82.28
68842;SHT35;55849;48.482;2.332;2024-03-02T13:37:01;11.23;82.22
68842;SHT35;55849;48.482;2.332;2024-03-02T13:40:03;11.26;82.13
68842;SHT35;55849;48.482;2.332;2024-03-02T13:43:05;11.26;82.24
68842;SHT35;55849;48.482;2.332;2024-03-02T13:46:07;11.23;82.24
68842;SHT35;55849;48.482;2.332;2024-03-02T13:49:11;11.23;82.00
68842;SHT35;55849;48.482;2.332;2024-03-02T13:52:13;11.26;82.11
68842;SHT35;55849;48.482;2.332;2024-03-02T13:55:15;11.29;82.00
68842;SHT35;55849;48.482;2.332;2024-03-02T13:58:17;11.32;81.90
68842;SHT35;55849;48.482;2.332;2024-03-02T14:01:20;11.31;81.87
68842;SHT35;55849;48.482;2.332;2024-03-02T14:04:24;11.35;81.94
68842;SHT35;55849;48.482;2.332;2024-03-02T14:07:25;11.36;81.99
68842;SHT35;55849;48.482;2.332;2024-03-02T14:10:27;11.36;81.82
68842;SHT35;55849;48.482;2.332;2024-03-02T14:13:29;11.38;81.83
68842;SHT35;55849;48.482;2.332;2024-03-02T14:16:31;11.40;81.76
68842;SHT35;55849;48.482;2.332;2024-03-02T14:19:33;11.43;81.70
68842;SHT35;55849;48.482;2.332;2024-03-02T14:22:36;11.43;81.75
68842;SHT35;55849;48.482;2.332;2024-03-02T14:25:37;11.43;81.64
68842;SHT35;55849;48.482;2.332;2024-03-02T14:28:39;11.44;81.36
68842;SHT35;55849;48.482;2.332;2024-03-02T14:31:40;11.44;81.58
68842;SHT35;55849;48.482;2.332;2024-03-02T14:34:43;11.46;81.67
68842;SHT35;55849;48.482;2.332;2024-03-02T14:37:46;11.49;81.61
68842;SHT35;55849;48.482;2.332;2024-03-02T14:40:48;11.49;81.73
68842;SHT35;55849;48.482;2.332;2024-03-02T14:43:50;11.50;81.59
68842;SHT35;55849;48.482;2.332;2024-03-02T14:46:52;11.50;81.72
68842;SHT35;55849;48.482;2.332;2024-03-02T14:49:55;11.53;81.64
68842;SHT35;55849;48.482;2.332;2024-03-02T14:52:56;11.56;81.59
68842;SHT35;55849;48.482;2.332;2024-03-02T14:55:59;11.53;81.50
68842;SHT35;55849;48.482;2.332;2024-03-02T14:59:01;11.56;81.57
68842;SHT35;55849;48.482;2.332;2024-03-02T15:02:03;11.56;81.62
68842;SHT35;55849;48.482;2.332;2024-03-02T15:05:07;11.52;81.57
68842;SHT35;55849;48.482;2.332;2024-03-02T15:08:09;11.56;81.51
68842;SHT35;55849;48.482;2.332;2024-03-02T15:11:10;11.56;81.56
68842;SHT35;55849;48.482;2.332;2024-03-02T15:14:12;11.56;81.53
68842;SHT35;55849;48.482;2.332;2024-03-02T15:17:14;11.56;81.54
68842;SHT35;55849;48.482;2.332;2024-03-02T15:20:18;11.60;81.63
68842;SHT35;55849;48.482;2.332;2024-03-02T15:23:21;11.57;81.55
68842;SHT35;55849;48.482;2.332;2024-03-02T15:26:22;11.59;81.54
68842;SHT35;55849;48.482;2.332;2024-03-02T15:29:24;11.60;81.52
68842;SHT35;55849;48.482;2.332;2024-03-02T15:32:29;11.59;81.52
68842;SHT35;55849;48.482;2.332;2024-03-02T15:35:32;11.59;81.55
68842;SHT35;55849;48.482;2.332;2024-03-02T15:38:34;11.63;81.58
68842;SHT35;55849;48.482;2.332;2024-03-02T15:41:37;11.59;81.57
68842;SHT35;55849;48.482;2.332;2024-03-02T15:44:40;11.59;81.45
68842;SHT35;55849;48.482;2.332;2024-03-02T15:47:42;11.57;81.44
68842;SHT35;55849;48.482;2.332;2024-03-02T15:50:45;11.57;81.50
68842;SHT35;55849;48.482;2.332;2024-03-02T15:53:47;11.56;81.49
68842;SHT35;55849;48.482;2.332;2024-03-02T15:56:48;11.53;81.31
68842;SHT35;55849;48.482;2.332;2024-03-02T15:59:50;11.52;81.48
68842;SHT35;55849;48.482;2.332;2024-03-02T16:02:52;11.55;81.58
68842;SHT35;55849;48.482;2.332;2024-03-02T16:05:55;11.52;81.62
68842;SHT35;55849;48.482;2.332;2024-03-02T16:08:56;11.55;81.57
68842;SHT35;55849;48.482;2.332;2024-03-02T16:12:00;11.52;81.43
68842;SHT35;55849;48.482;2.332;2024-03-02T16:15:01;11.50;81.46
68842;SHT35;55849;48.482;2.332;2024-03-02T16:18:04;11.52;81.54
68842;SHT35;55849;48.482;2.332;2024-03-02T16:21:08;11.53;81.54
68842;SHT35;55849;48.482;2.332;2024-03-02T16:24:10;11.49;81.47
68842;SHT35;55849;48.482;2.332;2024-03-02T16:27:11;11.49;81.61
68842;SHT35;55849;48.482;2.332;2024-03-02T16:30:13;11.49;81.46
68842;SHT35;55849;48.482;2.332;2024-03-02T16:33:15;11.46;81.27
68842;SHT35;55849;48.482;2.332;2024-03-02T16:36:20;11.43;81.50
68842;SHT35;55849;48.482;2.332;2024-03-02T16:39:22;11.40;81.27
68842;SHT35;55849;48.482;2.332;2024-03-02T16:42:23;11.38;80.78
68842;SHT35;55849;48.482;2.332;2024-03-02T16:45:25;11.28;79.81
68842;SHT35;55849;48.482;2.332;2024-03-02T16:48:26;11.14;79.75
68842;SHT35;55849;48.482;2.332;2024-03-02T16:51:29;11.04;80.31
68842;SHT35;55849;48.482;2.332;2024-03-02T16:54:31;10.98;79.79
68842;SHT35;55849;48.482;2.332;2024-03-02T16:57:33;10.90;80.02
68842;SHT35;55849;48.482;2.332;2024-03-02T17:00:34;10.83;80.65
68842;SHT35;55849;48.482;2.332;2024-03-02T17:03:38;10.83;80.90
68842;SHT35;55849;48.482;2.332;2024-03-02T17:06:41;10.79;80.30
68842;SHT35;55849;48.482;2.332;2024-03-02T17:09:42;10.77;80.61
68842;SHT35;55849;48.482;2.332;2024-03-02T17:12:44;10.76;80.46
68842;SHT35;55849;48.482;2.332;2024-03-02T17:15:45;10.71;80.84
68842;SHT35;55849;48.482;2.332;2024-03-02T17:18:47;10.69;81.14
68842;SHT35;55849;48.482;2.332;2024-03-02T17:21:50;10.69;80.90
68842;SHT35;55849;48.482;2.332;2024-03-02T17:24:51;10.67;80.56
68842;SHT35;55849;48.482;2.332;2024-03-02T17:27:56;10.66;81.05
68842;SHT35;55849;48.482;2.332;2024-03-02T17:31:18;10.63;80.67
68842;SHT35;55849;48.482;2.332;2024-03-02T17:34:19;10.64;81.51
68842;SHT35;55849;48.482;2.332;2024-03-02T17:37:22;10.63;81.38
68842;SHT35;55849;48.482;2.332;2024-03-02T17:40:24;10.63;81.77
68842;SHT35;55849;48.482;2.332;2024-03-02T17:43:25;10.64;81.68
68842;SHT35;55849;48.482;2.332;2024-03-02T17:46:27;10.63;81.79
68842;SHT35;55849;48.482;2.332;2024-03-02T17:49:29;10.63;81.91
68842;SHT35;55849;48.482;2.332;2024-03-02T17:52:32;10.64;81.81
68842;SHT35;55849;48.482;2.332;2024-03-02T17:55:33;10.64;81.59
68842;SHT35;55849;48.482;2.332;2024-03-02T17:58:35;10.63;81.10
68842;SHT35;55849;48.482;2.332;2024-03-02T18:01:37;10.62;81.59
68842;SHT35;55849;48.482;2.332;2024-03-02T18:04:38;10.59;81.28
68842;SHT35;55849;48.482;2.332;2024-03-02T18:07:43;10.59;81.74
68842;SHT35;55849;48.482;2.332;2024-03-02T18:10:45;10.56;81.27
68842;SHT35;55849;48.482;2.332;2024-03-02T18:13:48;10.56;81.25
68842;SHT35;55849;48.482;2.332;2024-03-02T18:16:49;10.53;81.64
68842;SHT35;55849;48.482;2.332;2024-03-02T18:19:51;10.57;82.19
68842;SHT35;55849;48.482;2.332;2024-03-02T18:22:54;10.56;81.51
68842;SHT35;55849;48.482;2.332;2024-03-02T18:25:56;10.56;81.68
68842;SHT35;55849;48.482;2.332;2024-03-02T18:28:58;10.52;81.15
68842;SHT35;55849;48.482;2.332;2024-03-02T18:32:00;10.52;81.26
68842;SHT35;55849;48.482;2.332;2024-03-02T18:35:05;10.52;81.20
68842;SHT35;55849;48.482;2.332;2024-03-02T18:38:08;10.55;82.11
68842;SHT35;55849;48.482;2.332;2024-03-02T18:41:09;10.53;82.00
68842;SHT35;55849;48.482;2.332;2024-03-02T18:44:11;10.55;82.23
68842;SHT35;55849;48.482;2.332;2024-03-02T18:47:13;10.56;82.39
68842;SHT35;55849;48.482;2.332;2024-03-02T18:50:14;10.56;82.36
68842;SHT35;55849;48.482;2.332;2024-03-02T18:53:17;10.59;82.43
68842;SHT35;55849;48.482;2.332;2024-03-02T18:56:19;10.59;82.30
68842;SHT35;55849;48.482;2.332;2024-03-02T18:59:20;10.57;82.43
68842;SHT35;55849;48.482;2.332;2024-03-02T19:02:24;10.57;82.37
68842;SHT35;55849;48.482;2.332;2024-03-02T19:05:26;10.57;82.29
68842;SHT35;55849;48.482;2.332;2024-03-02T19:08:29;10.57;82.38
68842;SHT35;55849;48.482;2.332;2024-03-02T19:11:32;10.56;82.25
68842;SHT35;55849;48.482;2.332;2024-03-02T19:14:33;10.57;82.39
68842;SHT35;55849;48.482;2.332;2024-03-02T19:17:35;10.56;82.41
68842;SHT35;55849;48.482;2.332;2024-03-02T19:20:37;10.56;82.34
68842;SHT35;55849;48.482;2.332;2024-03-02T19:23:40;10.55;81.75
68842;SHT35;55849;48.482;2.332;2024-03-02T19:26:41;10.52;81.61
68842;SHT35;55849;48.482;2.332;2024-03-02T19:29:43;10.50;81.64
68842;SHT35;55849;48.482;2.332;2024-03-02T19:32:45;10.50;81.55
68842;SHT35;55849;48.482;2.332;2024-03-02T19:35:47;10.49;82.19
68842;SHT35;55849;48.482;2.332;2024-03-02T19:38:50;10.46;82.03
68842;SHT35;55849;48.482;2.332;2024-03-02T19:41:51;10.45;81.77
68842;SHT35;55849;48.482;2.332;2024-03-02T19:44:53;10.45;81.67
68842;SHT35;55849;48.482;2.332;2024-03-02T19:47:55;10.44;82.00
68842;SHT35;55849;48.482;2.332;2024-03-02T19:50:56;10.39;81.96
68842;SHT35;55849;48.482;2.332;2024-03-02T19:53:59;10.39;82.10
68842;SHT35;55849;48.482;2.332;2024-03-02T19:57:03;10.39;82.27
68842;SHT35;55849;48.482;2.332;2024-03-02T20:00:06;10.39;82.09
68842;SHT35;55849;48.482;2.332;2024-03-02T20:03:08;10.35;82.39
68842;SHT35;55849;48.482;2.332;2024-03-02T20:06:09;10.38;82.50
68842;SHT35;55849;48.482;2.332;2024-03-02T20:09:12;10.36;82.57
68842;SHT35;55849;48.482;2.332;2024-03-02T20:12:14;10.38;82.52
68842;SHT35;55849;48.482;2.332;2024-03-02T20:15:16;10.36;82.36
68842;SHT35;55849;48.482;2.332;2024-03-02T20:18:18;10.38;82.57
68842;SHT35;55849;48.482;2.332;2024-03-02T20:21:20;10.36;82.19
68842;SHT35;55849;48.482;2.332;2024-03-02T20:24:23;10.36;82.51
68842;SHT35;55849;48.482;2.332;2024-03-02T20:27:25;10.35;82.35
68842;SHT35;55849;48.482;2.332;2024-03-02T20:30:26;10.34;81.53
68842;SHT35;55849;48.482;2.332;2024-03-02T20:33:28;10.34;82.53
68842;SHT35;55849;48.482;2.332;2024-03-02T20:36:30;10.34;82.52
68842;SHT35;55849;48.482;2.332;2024-03-02T20:39:32;10.32;82.23
68842;SHT35;55849;48.482;2.332;2024-03-02T20:42:34;10.31;82.10
68842;SHT35;55849;48.482;2.332;2024-03-02T20:45:37;10.31;81.98
68842;SHT35;55849;48.482;2.332;2024-03-02T20:48:38;10.28;81.56
68842;SHT35;55849;48.482;2.332;2024-03-02T20:51:40;10.28;81.86
68842;SHT35;55849;48.482;2.332;2024-03-02T20:54:43;10.25;82.23
68842;SHT35;55849;48.482;2.332;2024-03-02T20:57:45;10.24;82.03
68842;SHT35;55849;48.482;2.332;2024-03-02T21:00:48;10.24;81.86
68842;SHT35;55849;48.482;2.332;2024-03-02T21:03:49;10.22;82.03
68842;SHT35;55849;48.482;2.332;2024-03-02T21:06:51;10.18;82.32
68842;SHT35;55849;48.482;2.332;2024-03-02T21:09:54;10.19;82.05
68842;SHT35;55849;48.482;2.332;2024-03-02T21:12:57;10.19;82.19
68842;SHT35;55849;48.482;2.332;2024-03-02T21:15:59;10.19;82.61
68842;SHT35;55849;48.482;2.332;2024-03-02T21:19:01;10.17;82.15
68842;SHT35;55849;48.482;2.332;2024-03-02T21:22:03;10.18;82.31
68842;SHT35;55849;48.482;2.332;2024-03-02T21:25:08;10.15;81.72
68842;SHT35;55849;48.482;2.332;2024-03-02T21:28:12;10.19;82.37
68842;SHT35;55849;48.482;2.332;2024-03-02T21:31:14;10.17;82.70
68842;SHT35;55849;48.482;2.332;2024-03-02T21:34:16;10.15;82.17
68842;SHT35;55849;48.482;2.332;2024-03-02T21:37:18;10.14;81.99
68842;SHT35;55849;48.482;2.332;2024-03-02T21:40:22;10.14;82.13
68842;SHT35;55849;48.482;2.332;2024-03-02T21:43:24;10.10;82.31
68842;SHT35;55849;48.482;2.332;2024-03-02T21:46:26;10.10;81.92
68842;SHT35;55849;48.482;2.332;2024-03-02T21:49:27;10.08;81.74
68842;SHT35;55849;48.482;2.332;2024-03-02T21:52:30;10.07;81.77
68842;SHT35;55849;48.482;2.332;2024-03-02T21:55:33;10.05;82.68
68842;SHT35;55849;48.482;2.332;2024-03-02T21:58:35;10.10;82.39
68842;SHT35;55849;48.482;2.332;2024-03-02T22:01:37;10.08;82.56
68842;SHT35;55849;48.482;2.332;2024-03-02T22:04:38;10.11;82.42
68842;SHT35;55849;48.482;2.332;2024-03-02T22:07:40;10.11;81.63
68842;SHT35;55849;48.482;2.332;2024-03-02T22:10:43;10.11;82.06
68842;SHT35;55849;48.482;2.332;2024-03-02T22:13:44;10.12;82.15
68842;SHT35;55849;48.482;2.332;2024-03-02T22:16:49;10.10;82.12
68842;SHT35;55849;48.482;2.332;2024-03-02T22:19:51;10.07;82.38
68842;SHT35;55849;48.482;2.332;2024-03-02T22:22:52;10.10;82.45
68842;SHT35;55849;48.482;2.332;2024-03-02T22:25:58;10.07;81.94
68842;SHT35;55849;48.482;2.332;2024-03-02T22:28:59;10.05;81.41
68842;SHT35;55849;48.482;2.332;2024-03-02T22:32:01;10.03;82.01
68842;SHT35;55849;48.482;2.332;2024-03-02T22:35:03;10.03;82.18
68842;SHT35;55849;48.482;2.332;2024-03-02T22:38:05;10.00;81.94
68842;SHT35;55849;48.482;2.332;2024-03-02T22:41:08;10.03;81.90
68842;SHT35;55849;48.482;2.332;2024-03-02T22:44:09;10.00;81.81
